Resolven, United Kingdom
Current Conditions -  °F | °C
As of 12:50 AM on Tuesday 25 Nov 2014 (Local Time) from EGDX Reporting Station
Clear Clear  
Wind Chill: 29°   Ceiling: Unl
Heat Index: 34°   Visibility: 6mi
Dew Point: 34°   Wind: 6mph
Humidity: 100%   Direction: 20°NNE
Pressure: 30.27"   Gusts: NA
Location:  51.71°N, 3.7°W
Report Text: EGDX 250050Z AUTO 02005KT 9999 NCD 01/01 Q1025
Loading
Personal Weather Stations






























Interactive Weather Map New forecast layout! Learn more

10-Day Weather Forecast

Advertisements
Track Severe Weather on mobile